createdAt,value
2022-11-29T00:00:51.084Z,8
2022-11-29T00:01:54.053Z,8
2022-11-29T00:02:57.200Z,8
2022-11-29T00:04:00.158Z,8
2022-11-29T00:05:02.873Z,10
2022-11-29T00:06:05.530Z,8
2022-11-29T00:07:08.638Z,8
2022-11-29T00:08:11.254Z,8
2022-11-29T00:09:13.917Z,7
2022-11-29T00:10:16.595Z,8
2022-11-29T00:11:19.235Z,8
2022-11-29T00:12:21.898Z,7
2022-11-29T00:13:24.559Z,8
2022-11-29T00:14:27.261Z,8
2022-11-29T00:15:29.950Z,7
2022-11-29T00:16:32.958Z,7
2022-11-29T00:17:35.708Z,8
2022-11-29T00:18:38.373Z,7
2022-11-29T00:19:41.026Z,8
2022-11-29T00:20:43.694Z,7
2022-11-29T00:21:46.326Z,7
2022-11-29T00:22:48.987Z,8
2022-11-29T00:23:51.887Z,7
2022-11-29T00:24:54.526Z,7
2022-11-29T00:25:57.149Z,7
2022-11-29T00:26:59.841Z,7
2022-11-29T00:28:02.740Z,7
2022-11-29T00:29:05.623Z,7
2022-11-29T00:30:08.253Z,8
2022-11-29T00:31:10.996Z,7
2022-11-29T00:32:13.994Z,7
2022-11-29T00:33:16.621Z,7
2022-11-29T00:34:19.294Z,7
2022-11-29T00:35:21.925Z,7
2022-11-29T00:36:24.628Z,7
2022-11-29T00:37:27.280Z,7
2022-11-29T00:38:30.535Z,8
2022-11-29T00:39:33.190Z,7
2022-11-29T00:40:35.843Z,7
2022-11-29T00:41:38.490Z,7
2022-11-29T00:42:41.142Z,7
2022-11-29T00:43:43.818Z,7
2022-11-29T00:44:46.540Z,7
2022-11-29T00:45:49.301Z,7
2022-11-29T00:46:52.027Z,7
2022-11-29T00:47:54.684Z,7
2022-11-29T00:48:57.338Z,7
2022-11-29T00:49:59.945Z,6
2022-11-29T00:51:03.236Z,6
2022-11-29T00:52:05.924Z,7
2022-11-29T00:53:08.573Z,7
2022-11-29T00:54:11.227Z,7
2022-11-29T00:55:13.921Z,7
2022-11-29T00:56:16.602Z,7
2022-11-29T00:57:19.276Z,7
2022-11-29T00:58:21.917Z,8
2022-11-29T00:59:24.608Z,7
2022-11-29T01:00:27.244Z,7
2022-11-29T01:01:29.981Z,6
2022-11-29T01:02:32.833Z,7
2022-11-29T01:03:35.799Z,7
2022-11-29T01:04:38.442Z,8
2022-11-29T01:05:41.071Z,7
2022-11-29T01:06:43.732Z,6
2022-11-29T01:07:46.539Z,7
2022-11-29T01:08:49.322Z,5
2022-11-29T01:09:51.975Z,7
2022-11-29T01:10:54.643Z,5
2022-11-29T01:11:57.506Z,6
2022-11-29T01:13:00.165Z,7
2022-11-29T01:14:02.821Z,7
2022-11-29T01:15:05.472Z,7
2022-11-29T01:16:08.100Z,7
2022-11-29T01:17:10.851Z,5
2022-11-29T01:18:13.757Z,6
2022-11-29T01:19:16.425Z,6
2022-11-29T01:20:19.084Z,6
2022-11-29T01:21:21.935Z,7
2022-11-29T01:22:24.612Z,8
2022-11-29T01:23:27.293Z,7
2022-11-29T01:24:29.979Z,6
2022-11-29T01:25:32.636Z,6
2022-11-29T01:26:35.533Z,6
2022-11-29T01:27:38.175Z,6
2022-11-29T01:28:41.060Z,7
2022-11-29T01:29:43.715Z,7
2022-11-29T01:30:46.710Z,7
2022-11-29T01:31:49.519Z,7
2022-11-29T01:32:52.144Z,6
2022-11-29T01:33:54.768Z,7
2022-11-29T01:34:57.408Z,6
2022-11-29T01:36:00.000Z,5
2022-11-29T01:37:02.633Z,7
2022-11-29T01:38:05.908Z,7
2022-11-29T01:39:08.587Z,6
2022-11-29T01:40:11.218Z,6
2022-11-29T01:41:13.853Z,6
2022-11-29T01:42:16.545Z,7
2022-11-29T01:43:19.171Z,6
2022-11-29T01:44:21.836Z,5
2022-11-29T01:45:24.505Z,6
2022-11-29T01:46:27.582Z,5
2022-11-29T01:47:30.414Z,6
2022-11-29T01:48:33.064Z,7
2022-11-29T01:49:35.927Z,7
2022-11-29T01:50:38.575Z,6
2022-11-29T01:51:41.244Z,7
2022-11-29T01:52:43.932Z,6
2022-11-29T01:53:46.589Z,7
2022-11-29T01:54:49.745Z,5
2022-11-29T01:55:52.923Z,6
2022-11-29T01:56:56.055Z,6
2022-11-29T01:57:58.725Z,6
2022-11-29T01:59:01.371Z,7
2022-11-29T02:00:04.072Z,7
2022-11-29T02:01:06.845Z,6
2022-11-29T02:02:09.707Z,6
2022-11-29T02:03:12.729Z,6
2022-11-29T02:04:15.349Z,6
2022-11-29T02:05:18.005Z,6
2022-11-29T02:06:20.689Z,6
2022-11-29T02:07:23.383Z,6
2022-11-29T02:08:26.404Z,7
2022-11-29T02:09:29.088Z,7
2022-11-29T02:10:32.000Z,6
2022-11-29T02:11:34.630Z,6
2022-11-29T02:12:37.278Z,6
2022-11-29T02:13:39.937Z,6
2022-11-29T02:14:43.316Z,6
2022-11-29T02:15:47.042Z,5
2022-11-29T02:16:56.642Z,6
2022-11-29T02:17:59.094Z,5
2022-11-29T02:19:01.721Z,6
2022-11-29T02:20:04.407Z,6
2022-11-29T02:21:07.060Z,6
2022-11-29T02:22:09.700Z,6
2022-11-29T02:23:12.295Z,6
2022-11-29T02:24:14.943Z,6
2022-11-29T02:25:17.629Z,7
2022-11-29T02:26:20.533Z,6
2022-11-29T02:27:23.224Z,6
2022-11-29T02:28:25.884Z,7
2022-11-29T02:29:28.563Z,6
2022-11-29T02:30:31.573Z,5
2022-11-29T02:31:34.342Z,6
2022-11-29T02:32:36.993Z,6
2022-11-29T02:33:39.612Z,6
2022-11-29T02:34:42.898Z,7
2022-11-29T02:35:46.904Z,6
2022-11-29T02:36:49.525Z,7
2022-11-29T02:37:52.231Z,6
2022-11-29T02:38:54.889Z,5
2022-11-29T02:39:57.517Z,6
2022-11-29T02:41:00.204Z,5
2022-11-29T02:42:03.132Z,5
2022-11-29T02:43:05.966Z,5
2022-11-29T02:44:08.608Z,5
2022-11-29T02:45:11.355Z,6
2022-11-29T02:46:14.492Z,6
2022-11-29T02:47:17.275Z,5
2022-11-29T02:48:19.928Z,6
2022-11-29T02:49:22.546Z,6
2022-11-29T02:50:25.192Z,6
2022-11-29T02:51:27.861Z,5
2022-11-29T02:52:30.543Z,6
2022-11-29T02:53:33.141Z,6
2022-11-29T02:54:35.756Z,5
2022-11-29T02:55:38.397Z,6
2022-11-29T02:56:41.054Z,6
2022-11-29T02:57:43.987Z,7
2022-11-29T02:58:46.668Z,6
2022-11-29T02:59:49.302Z,6
2022-11-29T03:00:51.972Z,6
2022-11-29T03:01:55.257Z,6
2022-11-29T03:02:58.034Z,7
2022-11-29T03:04:00.987Z,7
2022-11-29T03:05:03.625Z,6
2022-11-29T03:06:06.282Z,5
2022-11-29T03:07:08.933Z,7
2022-11-29T03:08:11.608Z,6
2022-11-29T03:09:14.267Z,6
2022-11-29T03:10:17.132Z,7
2022-11-29T03:11:19.754Z,6
2022-11-29T03:12:22.436Z,6
2022-11-29T03:13:25.358Z,6
2022-11-29T03:14:28.009Z,6
2022-11-29T03:15:30.868Z,6
2022-11-29T03:16:41.434Z,6
2022-11-29T03:17:45.868Z,5
2022-11-29T03:18:48.494Z,4
2022-11-29T03:19:51.107Z,7
2022-11-29T03:20:53.765Z,6
2022-11-29T03:21:56.384Z,6
2022-11-29T03:22:59.008Z,6
2022-11-29T03:24:01.663Z,5
2022-11-29T03:25:04.548Z,5
2022-11-29T03:26:07.304Z,6
2022-11-29T03:27:09.963Z,6
2022-11-29T03:28:12.664Z,5
2022-11-29T03:29:16.552Z,6
2022-11-29T03:30:19.412Z,6
2022-11-29T03:31:22.093Z,7
2022-11-29T03:32:24.850Z,5
2022-11-29T03:33:27.596Z,6
2022-11-29T03:34:30.258Z,7
2022-11-29T03:35:32.879Z,7
2022-11-29T03:36:35.551Z,6
2022-11-29T03:37:38.175Z,6
2022-11-29T03:38:40.869Z,7
2022-11-29T03:39:43.507Z,6
2022-11-29T03:40:46.153Z,6
2022-11-29T03:41:48.823Z,7
2022-11-29T03:42:51.475Z,6
2022-11-29T03:43:54.269Z,6
2022-11-29T03:44:56.949Z,7
2022-11-29T03:45:59.880Z,7
2022-11-29T03:47:02.692Z,7
2022-11-29T03:48:05.607Z,5
2022-11-29T03:49:08.300Z,6
2022-11-29T03:50:11.167Z,6
2022-11-29T03:51:13.820Z,7
2022-11-29T03:52:16.464Z,7
2022-11-29T03:53:19.111Z,7
2022-11-29T03:54:22.403Z,7
2022-11-29T03:55:25.077Z,7
2022-11-29T03:56:27.738Z,7
2022-11-29T03:57:31.893Z,7
2022-11-29T03:58:34.955Z,8
2022-11-29T03:59:37.637Z,7
2022-11-29T04:00:40.324Z,9
2022-11-29T04:01:43.031Z,7
2022-11-29T04:02:45.842Z,7
2022-11-29T04:03:48.718Z,7
2022-11-29T04:04:51.346Z,9
2022-11-29T04:05:53.996Z,10
2022-11-29T04:06:56.638Z,10
2022-11-29T04:08:02.924Z,10
2022-11-29T04:09:05.383Z,10
2022-11-29T04:10:08.010Z,11
2022-11-29T04:11:11.210Z,11
2022-11-29T04:12:14.065Z,11
2022-11-29T04:13:16.679Z,11
2022-11-29T04:14:19.905Z,10
2022-11-29T04:15:22.553Z,10
2022-11-29T04:16:25.536Z,8
2022-11-29T04:17:28.187Z,7
2022-11-29T04:18:30.784Z,7
2022-11-29T04:19:33.461Z,7
2022-11-29T04:20:44.160Z,7
2022-11-29T04:21:50.703Z,6
2022-11-29T04:22:53.325Z,7
2022-11-29T04:23:55.978Z,7
2022-11-29T04:24:58.589Z,6
2022-11-29T04:26:01.252Z,7
2022-11-29T04:27:03.927Z,6
2022-11-29T04:28:06.541Z,7
2022-11-29T04:29:09.209Z,7
2022-11-29T04:30:11.829Z,7
2022-11-29T04:31:14.688Z,7
2022-11-29T04:32:17.568Z,8
2022-11-29T04:33:20.227Z,9
2022-11-29T04:34:22.891Z,7
2022-11-29T04:35:25.618Z,8
2022-11-29T04:36:28.260Z,7
2022-11-29T04:37:31.148Z,8
2022-11-29T04:38:33.779Z,7
2022-11-29T04:39:36.404Z,7
2022-11-29T04:40:39.093Z,7
2022-11-29T04:41:41.760Z,7
2022-11-29T04:42:44.404Z,6
2022-11-29T04:43:47.067Z,7
2022-11-29T04:44:49.736Z,7
2022-11-29T04:45:52.363Z,7
2022-11-29T04:46:55.051Z,7
2022-11-29T04:47:57.767Z,7
2022-11-29T04:49:00.419Z,7
2022-11-29T04:50:03.043Z,6
2022-11-29T04:51:05.709Z,5
2022-11-29T04:52:08.952Z,6
2022-11-29T04:53:11.579Z,6
2022-11-29T04:54:14.301Z,6
2022-11-29T04:55:27.755Z,7
2022-11-29T04:56:33.462Z,6
2022-11-29T04:57:36.046Z,6
2022-11-29T04:58:38.697Z,6
2022-11-29T04:59:41.383Z,10
2022-11-29T05:00:44.095Z,13
2022-11-29T05:01:47.048Z,11
2022-11-29T05:02:49.938Z,11
2022-11-29T05:03:57.482Z,10
2022-11-29T05:04:59.860Z,8
2022-11-29T05:06:02.513Z,8
2022-11-29T05:07:05.184Z,10
2022-11-29T05:08:07.824Z,14
2022-11-29T05:09:10.455Z,16
2022-11-29T05:10:13.320Z,17
2022-11-29T05:11:15.933Z,17
2022-11-29T05:12:18.626Z,17
2022-11-29T05:13:21.466Z,26
2022-11-29T05:14:24.110Z,72
2022-11-29T05:15:26.794Z,64
2022-11-29T05:16:29.430Z,49
2022-11-29T05:17:32.078Z,30
2022-11-29T05:18:34.752Z,19
2022-11-29T05:19:37.436Z,14
2022-11-29T05:20:40.307Z,11
2022-11-29T05:21:43.827Z,10
2022-11-29T05:22:46.427Z,10
2022-11-29T05:23:49.061Z,10
2022-11-29T05:24:51.734Z,8
2022-11-29T05:25:54.398Z,8
2022-11-29T05:26:57.069Z,8
2022-11-29T05:27:59.681Z,10
2022-11-29T05:29:05.846Z,8
2022-11-29T05:30:08.203Z,10
2022-11-29T05:31:10.999Z,10
2022-11-29T05:32:13.768Z,8
2022-11-29T05:34:06.063Z,10
2022-11-29T05:35:16.092Z,17
2022-11-29T05:36:18.672Z,18
2022-11-29T05:37:21.285Z,17
2022-11-29T05:38:24.127Z,17
2022-11-29T05:39:26.753Z,16
2022-11-29T05:40:29.434Z,13
2022-11-29T05:41:32.068Z,13
2022-11-29T05:42:34.709Z,11
2022-11-29T05:43:37.334Z,11
2022-11-29T05:44:39.915Z,10
2022-11-29T05:45:45.768Z,10
2022-11-29T05:46:48.454Z,10
2022-11-29T05:47:51.200Z,10
2022-11-29T05:48:54.286Z,10
2022-11-29T05:49:56.906Z,10
2022-11-29T05:50:59.559Z,9
2022-11-29T05:52:02.239Z,10
2022-11-29T05:53:04.890Z,9
2022-11-29T05:54:15.367Z,9
2022-11-29T05:55:17.337Z,10
2022-11-29T05:56:19.971Z,10
2022-11-29T05:57:22.635Z,9
2022-11-29T05:58:30.899Z,9
2022-11-29T05:59:33.885Z,9
2022-11-29T06:00:39.974Z,8
2022-11-29T06:01:54.021Z,9
2022-11-29T06:02:56.507Z,10
2022-11-29T06:03:59.228Z,8
2022-11-29T06:05:01.881Z,10
2022-11-29T06:06:04.569Z,8
2022-11-29T06:07:07.258Z,9
2022-11-29T06:08:10.066Z,8
2022-11-29T06:09:12.700Z,8
2022-11-29T06:10:15.340Z,8
2022-11-29T06:11:18.197Z,8
2022-11-29T06:12:21.779Z,8
2022-11-29T06:13:24.356Z,8
2022-11-29T06:14:26.988Z,7
2022-11-29T06:15:29.635Z,8
2022-11-29T06:16:54.279Z,7
2022-11-29T06:18:00.240Z,8
2022-11-29T06:19:02.841Z,7
2022-11-29T06:20:05.735Z,7
2022-11-29T06:21:08.376Z,7
2022-11-29T06:22:11.007Z,7
2022-11-29T06:23:13.662Z,7
2022-11-29T06:24:16.700Z,7
2022-11-29T06:25:28.043Z,7
2022-11-29T06:26:30.671Z,8
2022-11-29T06:27:33.287Z,7
2022-11-29T06:28:35.917Z,9
2022-11-29T06:29:38.568Z,8
2022-11-29T06:30:41.277Z,8
2022-11-29T06:31:44.138Z,8
2022-11-29T06:32:46.996Z,7
2022-11-29T06:33:49.644Z,8
2022-11-29T06:34:52.294Z,7
2022-11-29T06:35:54.988Z,8
2022-11-29T06:36:57.779Z,7
2022-11-29T06:38:00.467Z,8
2022-11-29T06:39:03.093Z,8
2022-11-29T06:40:05.777Z,8
2022-11-29T06:41:08.659Z,10
2022-11-29T06:42:11.267Z,11
2022-11-29T06:43:13.931Z,13
2022-11-29T06:44:16.591Z,13
2022-11-29T06:46:35.923Z,13
2022-11-29T06:47:38.845Z,13
2022-11-29T06:48:42.055Z,13
2022-11-29T06:49:44.790Z,13
2022-11-29T06:50:47.431Z,13
2022-11-29T06:51:50.050Z,14
2022-11-29T06:52:52.964Z,18
2022-11-29T06:53:55.628Z,20
2022-11-29T06:54:58.248Z,19
2022-11-29T06:56:00.892Z,20
2022-11-29T06:57:03.545Z,20
2022-11-29T06:58:06.180Z,20
2022-11-29T06:59:08.863Z,17
2022-11-29T07:00:11.538Z,17
2022-11-29T07:01:14.534Z,14
2022-11-29T07:02:17.412Z,17
2022-11-29T07:03:20.179Z,18
2022-11-29T07:04:22.856Z,19
2022-11-29T07:05:25.525Z,20
2022-11-29T07:06:28.156Z,20
2022-11-29T07:07:30.931Z,19
2022-11-29T07:08:33.799Z,19
2022-11-29T07:09:36.438Z,17
2022-11-29T07:10:39.113Z,17
2022-11-29T07:11:41.785Z,17
2022-11-29T07:12:51.979Z,16
2022-11-29T07:13:54.234Z,16
2022-11-29T07:14:56.823Z,16
2022-11-29T07:15:59.498Z,13
2022-11-29T07:17:02.582Z,13
2022-11-29T07:18:05.201Z,12
2022-11-29T07:19:07.829Z,14
2022-11-29T07:20:22.172Z,15
2022-11-29T07:21:24.323Z,14
2022-11-29T07:22:26.937Z,14
2022-11-29T07:23:29.676Z,11
2022-11-29T07:24:32.332Z,11
2022-11-29T07:25:35.019Z,10
2022-11-29T07:26:37.675Z,10
2022-11-29T07:27:40.318Z,10
2022-11-29T07:28:42.966Z,10
2022-11-29T07:29:45.582Z,10
2022-11-29T07:30:48.271Z,10
2022-11-29T07:31:51.062Z,8
2022-11-29T07:33:00.416Z,8
2022-11-29T07:34:03.757Z,7
2022-11-29T07:35:06.329Z,8
2022-11-29T07:36:08.936Z,9
2022-11-29T07:37:11.625Z,11
2022-11-29T07:38:14.305Z,13
2022-11-29T07:39:16.942Z,14
2022-11-29T07:40:25.453Z,14
2022-11-29T07:41:41.366Z,17
2022-11-29T07:42:43.821Z,18
2022-11-29T07:43:46.479Z,17
2022-11-29T07:45:05.734Z,13
2022-11-29T07:46:09.997Z,14
2022-11-29T07:47:12.605Z,14
2022-11-29T07:48:15.210Z,14
2022-11-29T07:49:18.302Z,15
2022-11-29T07:50:21.155Z,16
2022-11-29T07:51:23.820Z,16
2022-11-29T07:52:26.495Z,13
2022-11-29T07:53:29.133Z,11
2022-11-29T07:54:31.802Z,10
2022-11-29T07:55:39.007Z,11
2022-11-29T07:56:41.337Z,11
2022-11-29T07:57:43.997Z,13
2022-11-29T07:58:46.744Z,11
2022-11-29T07:59:49.643Z,10
2022-11-29T08:00:52.360Z,10
2022-11-29T08:01:55.259Z,10
2022-11-29T08:02:57.995Z,10
2022-11-29T08:04:01.228Z,11
2022-11-29T08:05:03.829Z,17
2022-11-29T08:06:06.431Z,17
2022-11-29T08:07:09.089Z,19
2022-11-29T08:08:11.743Z,17
2022-11-29T08:09:14.350Z,14
2022-11-29T08:10:17.004Z,13
2022-11-29T08:11:19.684Z,10
2022-11-29T08:12:22.345Z,10
2022-11-29T08:13:24.964Z,8
2022-11-29T08:14:27.597Z,8
2022-11-29T08:15:30.296Z,8
2022-11-29T08:16:33.052Z,7
2022-11-29T08:17:36.130Z,7
2022-11-29T08:18:38.951Z,8
2022-11-29T08:19:41.594Z,7
2022-11-29T08:20:44.285Z,7
2022-11-29T08:21:46.958Z,7
2022-11-29T08:22:49.629Z,7
2022-11-29T08:23:52.553Z,8
2022-11-29T08:24:55.230Z,8
2022-11-29T08:25:58.061Z,7
2022-11-29T08:27:00.832Z,7
2022-11-29T08:28:03.605Z,7
2022-11-29T08:29:06.261Z,8
2022-11-29T08:30:08.891Z,9
2022-11-29T08:31:11.817Z,10
2022-11-29T08:32:14.575Z,10
2022-11-29T08:33:17.198Z,10
2022-11-29T08:34:19.860Z,10
2022-11-29T08:35:22.539Z,11
2022-11-29T08:36:25.422Z,16
2022-11-29T08:37:28.311Z,19
2022-11-29T08:38:30.972Z,23
2022-11-29T08:39:36.306Z,62
2022-11-29T08:40:39.397Z,91
2022-11-29T08:41:42.030Z,94
2022-11-29T08:42:44.975Z,69
2022-11-29T08:43:47.644Z,38
2022-11-29T08:44:50.353Z,23
2022-11-29T08:45:53.184Z,19
2022-11-29T08:46:55.944Z,17
2022-11-29T08:47:58.586Z,14
2022-11-29T08:49:01.822Z,14
2022-11-29T08:50:04.529Z,15
2022-11-29T08:51:07.208Z,14
2022-11-29T08:52:09.875Z,14
2022-11-29T08:53:13.118Z,11
2022-11-29T08:54:15.717Z,8
2022-11-29T08:55:18.407Z,8
2022-11-29T08:57:16.954Z,10
2022-11-29T08:57:42.967Z,10
2022-11-29T08:58:45.550Z,10
2022-11-29T08:59:48.343Z,10
2022-11-29T09:00:51.039Z,9
2022-11-29T09:01:54.019Z,9
2022-11-29T09:02:57.050Z,11
2022-11-29T09:03:59.764Z,13
2022-11-29T09:05:02.463Z,13
2022-11-29T09:06:13.382Z,13
2022-11-29T09:07:15.503Z,11
2022-11-29T09:08:18.353Z,13
2022-11-29T09:09:20.984Z,11
2022-11-29T09:10:23.659Z,11
2022-11-29T09:11:26.881Z,10
2022-11-29T09:12:29.523Z,11
2022-11-29T09:13:32.191Z,10
2022-11-29T09:14:34.864Z,10
2022-11-29T09:15:37.515Z,9
2022-11-29T09:16:40.284Z,10
2022-11-29T09:17:44.578Z,9
2022-11-29T09:18:52.318Z,11
2022-11-29T09:19:58.478Z,11
2022-11-29T09:21:00.910Z,11
2022-11-29T09:22:05.201Z,11
2022-11-29T09:23:10.415Z,10
2022-11-29T09:24:13.070Z,11
2022-11-29T09:25:20.141Z,9
2022-11-29T09:26:22.777Z,10
2022-11-29T09:27:25.886Z,10
2022-11-29T09:28:40.524Z,11
2022-11-29T09:29:42.774Z,11
2022-11-29T09:30:45.451Z,11
2022-11-29T09:31:50.709Z,11
2022-11-29T09:32:53.706Z,10
2022-11-29T09:33:56.389Z,10
2022-11-29T09:34:59.013Z,11
2022-11-29T09:36:01.692Z,11
2022-11-29T09:37:07.455Z,10
2022-11-29T09:38:09.956Z,9
2022-11-29T09:39:13.693Z,10
2022-11-29T09:40:27.366Z,11
2022-11-29T09:41:28.784Z,13
2022-11-29T09:42:31.471Z,11
2022-11-29T09:43:34.900Z,11
2022-11-29T09:44:37.743Z,11
2022-11-29T09:45:40.462Z,11
2022-11-29T09:46:45.574Z,11
2022-11-29T09:48:02.163Z,11
2022-11-29T09:49:28.988Z,10
2022-11-29T09:50:30.987Z,13
2022-11-29T09:51:44.472Z,13
2022-11-29T09:52:48.729Z,14
2022-11-29T09:53:56.813Z,13
2022-11-29T09:54:59.036Z,11
2022-11-29T09:56:06.372Z,11
2022-11-29T09:57:11.308Z,10
2022-11-29T09:58:21.652Z,11
2022-11-29T09:59:24.178Z,10
2022-11-29T10:00:27.159Z,10
2022-11-29T10:01:30.020Z,11
2022-11-29T10:02:32.953Z,11
2022-11-29T10:03:35.784Z,10
2022-11-29T10:04:38.502Z,11
2022-11-29T10:05:41.371Z,10
2022-11-29T10:06:44.264Z,11
2022-11-29T10:07:47.010Z,11
2022-11-29T10:08:49.791Z,11
2022-11-29T10:09:53.040Z,10
2022-11-29T10:10:55.645Z,11
2022-11-29T10:11:58.865Z,13
2022-11-29T10:13:01.502Z,13
2022-11-29T10:14:04.182Z,13
2022-11-29T10:15:06.822Z,13
2022-11-29T10:16:09.643Z,13
2022-11-29T10:17:12.453Z,17
2022-11-29T10:18:15.137Z,19
2022-11-29T10:19:17.810Z,17
2022-11-29T10:20:20.473Z,17
2022-11-29T10:21:23.156Z,14
2022-11-29T10:22:25.764Z,15
2022-11-29T10:23:33.603Z,13
2022-11-29T10:24:35.688Z,13
2022-11-29T10:25:38.410Z,13
2022-11-29T10:26:41.290Z,15
2022-11-29T10:27:43.920Z,17
2022-11-29T10:28:46.574Z,17
2022-11-29T10:29:49.466Z,16
2022-11-29T10:30:52.211Z,14
2022-11-29T10:31:55.287Z,14
2022-11-29T10:32:57.955Z,13
2022-11-29T10:34:00.913Z,11
2022-11-29T10:35:04.137Z,14
2022-11-29T10:36:07.000Z,14
2022-11-29T10:37:09.684Z,14
2022-11-29T10:38:32.980Z,16
2022-11-29T10:39:33.712Z,16
2022-11-29T10:40:36.284Z,15
2022-11-29T10:41:39.117Z,15
2022-11-29T10:42:41.732Z,16
2022-11-29T10:43:44.414Z,14
2022-11-29T10:44:47.605Z,17
2022-11-29T10:45:52.060Z,17
2022-11-29T10:46:54.761Z,16
2022-11-29T10:47:57.446Z,19
2022-11-29T10:49:00.096Z,17
2022-11-29T10:50:03.053Z,19
2022-11-29T10:51:05.704Z,18
2022-11-29T10:52:08.636Z,18
2022-11-29T10:53:11.288Z,18
2022-11-29T10:54:13.956Z,19
2022-11-29T10:55:16.622Z,19
2022-11-29T10:56:19.315Z,20
2022-11-29T10:57:21.959Z,20
2022-11-29T10:58:28.929Z,20
2022-11-29T10:59:31.502Z,19
2022-11-29T11:00:34.133Z,20
2022-11-29T11:01:37.209Z,19
2022-11-29T11:02:40.103Z,20
2022-11-29T11:03:42.743Z,20
2022-11-29T11:04:46.340Z,20
2022-11-29T11:05:49.915Z,21
2022-11-29T11:06:52.695Z,23
2022-11-29T11:07:55.562Z,22
2022-11-29T11:08:58.532Z,23
2022-11-29T11:10:03.018Z,22
2022-11-29T11:11:05.228Z,20
2022-11-29T11:12:07.929Z,20
2022-11-29T11:13:10.643Z,19
2022-11-29T11:14:13.380Z,19
2022-11-29T11:15:16.041Z,20
2022-11-29T11:16:19.072Z,20
2022-11-29T11:17:22.584Z,19
2022-11-29T11:18:25.388Z,19
2022-11-29T11:19:28.213Z,19
2022-11-29T11:20:31.245Z,18
2022-11-29T11:21:34.506Z,19
2022-11-29T11:22:37.157Z,20
2022-11-29T11:23:43.117Z,19
2022-11-29T11:24:45.892Z,19
2022-11-29T11:25:49.335Z,20
2022-11-29T11:26:51.960Z,19
2022-11-29T11:27:55.412Z,19
2022-11-29T11:28:57.966Z,19
2022-11-29T11:30:00.611Z,20
2022-11-29T11:31:03.457Z,19
2022-11-29T11:32:06.262Z,19
2022-11-29T11:33:08.941Z,19
2022-11-29T11:34:16.195Z,19
2022-11-29T11:35:18.845Z,19
2022-11-29T11:36:21.461Z,19
2022-11-29T11:37:24.181Z,20
2022-11-29T11:38:26.857Z,20
2022-11-29T11:39:29.550Z,20
2022-11-29T11:40:32.429Z,19
2022-11-29T11:41:35.136Z,20
2022-11-29T11:42:43.356Z,19
2022-11-29T11:43:47.919Z,19
2022-11-29T11:44:50.585Z,19
2022-11-29T11:45:53.334Z,19
2022-11-29T11:46:56.375Z,19
2022-11-29T11:47:59.025Z,19
2022-11-29T11:49:01.690Z,19
2022-11-29T11:50:04.468Z,19
2022-11-29T11:51:07.226Z,19
2022-11-29T11:52:09.862Z,20
2022-11-29T11:53:12.548Z,20
2022-11-29T11:54:15.205Z,20
2022-11-29T11:55:17.863Z,19
2022-11-29T11:56:20.503Z,20
2022-11-29T11:57:23.396Z,19
2022-11-29T11:58:26.270Z,19
2022-11-29T11:59:28.930Z,20
2022-11-29T12:01:02.214Z,19
2022-11-29T12:01:54.034Z,20
2022-11-29T12:02:56.838Z,19
2022-11-29T12:04:02.273Z,19
2022-11-29T12:05:04.832Z,20
2022-11-29T12:06:08.063Z,20
2022-11-29T12:07:10.734Z,20
2022-11-29T12:08:13.580Z,20
2022-11-29T12:09:16.819Z,19
2022-11-29T12:10:19.502Z,18
2022-11-29T12:11:22.418Z,18
2022-11-29T12:12:25.064Z,19
2022-11-29T12:13:27.719Z,19
2022-11-29T12:14:31.090Z,19
2022-11-29T12:15:33.773Z,18
2022-11-29T12:16:36.599Z,18
2022-11-29T12:17:39.222Z,18
2022-11-29T12:18:41.870Z,18
2022-11-29T12:19:44.556Z,19
2022-11-29T12:20:47.227Z,19
2022-11-29T12:21:51.056Z,20
2022-11-29T12:22:53.709Z,18
2022-11-29T12:23:56.373Z,18
2022-11-29T12:24:59.065Z,19
2022-11-29T12:26:02.058Z,19
2022-11-29T12:27:04.995Z,20
2022-11-29T12:28:07.851Z,18
2022-11-29T12:29:10.494Z,17
2022-11-29T12:30:13.167Z,19
2022-11-29T12:31:16.012Z,17
2022-11-29T12:32:18.820Z,17
2022-11-29T12:33:21.474Z,17
2022-11-29T12:34:24.904Z,17
2022-11-29T12:35:27.242Z,19
2022-11-29T12:36:30.469Z,17
2022-11-29T12:37:33.140Z,17
2022-11-29T12:38:36.048Z,17
2022-11-29T12:45:43.329Z,19
2022-11-29T12:47:35.495Z,19
2022-11-29T12:48:39.032Z,18
2022-11-29T12:49:41.596Z,17
2022-11-29T12:50:44.217Z,17
2022-11-29T12:51:46.878Z,17
2022-11-29T12:52:49.552Z,19
2022-11-29T12:53:52.784Z,18
2022-11-29T12:54:55.400Z,18
2022-11-29T12:56:26.969Z,17
2022-11-29T12:57:41.093Z,17
2022-11-29T12:58:53.052Z,16
2022-11-29T12:59:55.355Z,17
2022-11-29T13:00:57.979Z,16
2022-11-29T13:02:00.709Z,18
2022-11-29T13:03:03.514Z,17
2022-11-29T13:04:06.334Z,18
2022-11-29T13:05:08.995Z,17
2022-11-29T13:06:11.597Z,16
2022-11-29T13:07:14.255Z,16
2022-11-29T13:08:16.908Z,17
2022-11-29T13:09:19.590Z,17
2022-11-29T13:10:22.208Z,17
2022-11-29T13:11:24.861Z,18
2022-11-29T13:12:27.543Z,17
2022-11-29T13:13:30.323Z,18
2022-11-29T13:14:42.968Z,17
2022-11-29T13:15:46.876Z,16
2022-11-29T13:16:49.625Z,16
2022-11-29T13:17:52.559Z,17
2022-11-29T13:18:55.213Z,19
2022-11-29T13:19:57.876Z,18
2022-11-29T13:21:00.547Z,17
2022-11-29T13:22:03.296Z,19
2022-11-29T13:23:06.583Z,19
2022-11-29T13:24:10.712Z,18
2022-11-29T13:25:13.589Z,17
2022-11-29T13:26:16.285Z,19
2022-11-29T13:27:18.979Z,20
2022-11-29T13:28:21.620Z,19
2022-11-29T13:29:24.252Z,18
2022-11-29T13:30:26.908Z,17
2022-11-29T13:31:29.731Z,19
2022-11-29T13:32:34.353Z,18
2022-11-29T13:33:36.945Z,17
2022-11-29T13:34:39.633Z,17
2022-11-29T13:35:42.505Z,16
2022-11-29T13:36:45.176Z,16
2022-11-29T13:37:55.268Z,16
2022-11-29T13:38:57.863Z,14
2022-11-29T13:40:00.432Z,16
2022-11-29T13:41:03.127Z,14
2022-11-29T13:42:06.379Z,15
2022-11-29T13:43:08.999Z,13
2022-11-29T13:44:11.655Z,13
2022-11-29T13:45:14.301Z,13
2022-11-29T13:46:17.423Z,14
2022-11-29T13:47:20.215Z,14
2022-11-29T13:48:28.267Z,13
2022-11-29T13:49:31.306Z,13
2022-11-29T13:50:33.904Z,14
2022-11-29T13:51:36.545Z,15
2022-11-29T13:52:39.237Z,14
2022-11-29T13:53:49.036Z,14
2022-11-29T13:54:52.444Z,14
2022-11-29T13:55:55.043Z,14
2022-11-29T13:56:57.697Z,20
2022-11-29T13:58:20.687Z,22
2022-11-29T13:59:20.012Z,20
2022-11-29T14:00:23.091Z,21
2022-11-29T14:01:25.762Z,19
2022-11-29T14:02:28.719Z,19
2022-11-29T14:03:31.519Z,17
2022-11-29T14:04:34.193Z,17
2022-11-29T14:05:38.334Z,17
2022-11-29T14:06:40.958Z,18
2022-11-29T14:07:43.736Z,17
2022-11-29T14:09:20.299Z,19
2022-11-29T14:10:08.536Z,19
2022-11-29T14:11:11.050Z,20
2022-11-29T14:12:13.721Z,21
2022-11-29T14:13:16.429Z,21
2022-11-29T14:14:20.845Z,21
2022-11-29T14:15:23.494Z,20
2022-11-29T14:16:26.319Z,20
2022-11-29T14:17:32.712Z,19
2022-11-29T14:18:35.415Z,17
2022-11-29T14:19:38.122Z,17
2022-11-29T14:20:41.038Z,17
2022-11-29T14:21:43.695Z,20
2022-11-29T14:22:46.331Z,20
2022-11-29T14:23:48.965Z,19
2022-11-29T14:24:51.617Z,20
2022-11-29T14:25:54.295Z,17
2022-11-29T14:26:56.953Z,17
2022-11-29T14:27:59.650Z,16
2022-11-29T14:29:02.365Z,16
2022-11-29T14:30:05.292Z,17
2022-11-29T14:31:08.229Z,17
2022-11-29T14:32:10.960Z,17
2022-11-29T14:33:13.609Z,17
2022-11-29T14:34:16.301Z,17
2022-11-29T14:35:18.922Z,17
2022-11-29T14:36:21.558Z,18
2022-11-29T14:37:24.217Z,18
2022-11-29T14:38:31.436Z,18
2022-11-29T14:39:33.855Z,18
2022-11-29T14:40:38.047Z,17
2022-11-29T14:41:40.600Z,17
2022-11-29T14:42:43.242Z,18
2022-11-29T14:43:45.921Z,18
2022-11-29T14:44:48.557Z,17
2022-11-29T14:45:51.193Z,18
2022-11-29T14:46:53.892Z,17
2022-11-29T14:47:56.724Z,17
2022-11-29T14:48:59.366Z,17
2022-11-29T14:50:02.028Z,19
2022-11-29T14:51:04.720Z,19
2022-11-29T14:52:07.395Z,19
2022-11-29T14:53:10.013Z,20
2022-11-29T14:54:12.684Z,20
2022-11-29T14:55:15.339Z,20
2022-11-29T14:56:18.118Z,20
2022-11-29T14:57:20.789Z,19
2022-11-29T14:58:23.423Z,20
2022-11-29T14:59:26.121Z,19
2022-11-29T15:00:28.808Z,20
2022-11-29T15:01:31.590Z,20
2022-11-29T15:02:34.439Z,21
2022-11-29T15:03:37.327Z,21
2022-11-29T15:04:40.183Z,25
2022-11-29T15:05:42.878Z,23
2022-11-29T15:06:53.047Z,25
2022-11-29T15:07:55.480Z,26
2022-11-29T15:08:58.207Z,27
2022-11-29T15:10:00.906Z,30
2022-11-29T15:11:03.825Z,32
2022-11-29T15:12:06.460Z,28
2022-11-29T15:13:09.321Z,27
2022-11-29T15:14:12.012Z,27
2022-11-29T15:15:15.035Z,25
2022-11-29T15:16:18.193Z,26
2022-11-29T15:17:21.089Z,24
2022-11-29T15:18:24.193Z,23
2022-11-29T15:19:27.351Z,23
2022-11-29T15:20:30.576Z,26
2022-11-29T15:21:33.518Z,27
2022-11-29T15:22:36.385Z,27
2022-11-29T15:23:39.795Z,26
2022-11-29T15:24:44.103Z,29
2022-11-29T15:25:47.800Z,29
2022-11-29T15:26:50.412Z,28